»·PEaware :: UAL236 KLAX-KLAS

UAL236 :: KLAX-KLAS

FLIGHT INFORMATION

Flight Status: Arrived
Operator:
United Airlines
More flights by this operator :: More flights under this callsign
Pilot: Hamie N. (19932)
Aircraft: BOEING 737-900
(B739)
More flights by this aircraft type
Origin: KLAX Los Angeles Intl
United States
Destination: KLAS McCarran Intl
United States
More flights between these airports :: More routes between these airports
Route: +ORCKA3 MISEN KEPEC6
File this flight plan on PilotEdge
Remarks: Frist timt on pilotedge
Altitude:
(Current/Filed)
29,000ft
Speed:
(Current/Filed)
0kts
Departed: 30-Jul-18 11:35 AM
Arrived: 30-Jul-18 12:42 PM
Distance/Time
Traveled:
205nm/1:07
Distance/Time
To Go:
Arrived

Flight Plot

Page will automatically refresh every two minutes.

Flight plan parsing failed; only flown route is shown


Map Options




Map Legend


Flown Route
Filed Route
Departure Airport
Arrival Airport
Navaid (VOR, NDB)
Fix

Horizontal Profiles

Position Reports

Time Latitude Longitude Heading Altitude Ground
Speed
30-Jul-18 10:47 33.941229 -118.406202 270 122ft 0kts
30-Jul-18 10:48 33.941229 -118.406202 270 122ft 0kts
30-Jul-18 10:49 33.941229 -118.406202 270 122ft 0kts
30-Jul-18 10:50 33.941229 -118.406202 270 122ft 0kts
30-Jul-18 10:51 33.941229 -118.406202 270 122ft 0kts
30-Jul-18 10:52 33.941229 -118.406202 270 122ft 0kts
30-Jul-18 10:53 33.941229 -118.406202 270 122ft 0kts
30-Jul-18 10:54 33.941229 -118.406202 270 122ft 0kts
30-Jul-18 10:55 33.941229 -118.406202 270 122ft 0kts
30-Jul-18 10:56 33.941229 -118.406202 270 122ft 0kts
30-Jul-18 10:57 33.941229 -118.406202 270 122ft 0kts
30-Jul-18 10:58 33.941229 -118.406202 270 122ft 0kts
30-Jul-18 10:59 33.941229 -118.406202 270 122ft 0kts
30-Jul-18 11:00 33.941229 -118.406202 270 122ft 0kts
30-Jul-18 11:01 33.941229 -118.406202 270 122ft 0kts
30-Jul-18 11:02 33.941229 -118.406202 270 122ft 0kts
30-Jul-18 11:03 33.941229 -118.406202 270 122ft 0kts
30-Jul-18 11:04 33.941229 -118.406202 270 122ft 0kts
30-Jul-18 11:05 33.941229 -118.406202 270 122ft 0kts
30-Jul-18 11:06 33.941229 -118.406202 270 122ft 0kts
30-Jul-18 11:07 33.941229 -118.406202 270 122ft 0kts
30-Jul-18 11:08 33.941229 -118.406202 270 122ft 0kts
30-Jul-18 11:09 33.941229 -118.406202 270 122ft 0kts
30-Jul-18 11:10 33.941229 -118.406202 270 122ft 0kts
30-Jul-18 11:11 33.941229 -118.406202 270 122ft 0kts
30-Jul-18 11:12 33.941229 -118.406202 270 122ft 0kts
30-Jul-18 11:13 33.941229 -118.406202 270 122ft 0kts
30-Jul-18 11:14 33.941229 -118.406202 270 122ft 0kts
30-Jul-18 11:15 33.941301 -118.405984 237 122ft 0kts
30-Jul-18 11:16 33.941507 -118.405765 188 121ft 1kts
30-Jul-18 11:17 33.941699 -118.405761 173 121ft 1kts
30-Jul-18 11:18 33.941704 -118.405762 173 121ft 0kts
30-Jul-18 11:19 33.941704 -118.405762 173 121ft 0kts
30-Jul-18 11:20 33.941704 -118.405762 173 121ft 0kts
30-Jul-18 11:21 33.941704 -118.405762 173 121ft 0kts
30-Jul-18 11:22 33.941704 -118.405762 173 121ft 0kts
30-Jul-18 11:23 33.941704 -118.405762 173 121ft 0kts
30-Jul-18 11:24 33.941704 -118.405762 173 121ft 0kts
30-Jul-18 11:25 33.941704 -118.405762 173 121ft 0kts
30-Jul-18 11:26 33.941704 -118.405762 173 121ft 0kts
30-Jul-18 11:27 33.941469 -118.405730 172 121ft 7kts
30-Jul-18 11:28 33.938978 -118.405343 174 122ft 10kts
30-Jul-18 11:29 33.938575 -118.402379 82 119ft 28kts
30-Jul-18 11:30 33.939126 -118.397149 83 111ft 24kts
30-Jul-18 11:31 33.939653 -118.391894 81 106ft 23kts
30-Jul-18 11:32 33.940277 -118.385366 82 103ft 22kts
30-Jul-18 11:33 33.940449 -118.383690 98 100ft 0kts
30-Jul-18 11:34 33.940449 -118.383690 98 100ft 0kts
30-Jul-18 11:35 33.940357 -118.383346 131 100ft 3kts
30-Jul-18 11:36 33.939266 -118.385983 262 103ft 79kts
30-Jul-18 11:37 33.936313 -118.417824 262 1010ft 214kts
30-Jul-18 11:38 33.915240 -118.479761 213 3031ft 229kts
30-Jul-18 11:39 33.879228 -118.435947 63 1471ft 263kts
30-Jul-18 11:40 33.904631 -118.412758 20 1051ft 256kts
30-Jul-18 11:41 33.933193 -118.399615 15 1469ft 251kts
30-Jul-18 11:42 33.967099 -118.405583 325 2368ft 248kts
30-Jul-18 11:43 33.983710 -118.481112 262 4718ft 255kts
30-Jul-18 11:44 33.975178 -118.567225 262 7025ft 266kts
30-Jul-18 11:45 33.962398 -118.652735 225 9336ft 273kts
30-Jul-18 11:46 33.891309 -118.668968 171 11685ft 279kts
30-Jul-18 11:47 33.813329 -118.657341 171 13995ft 287kts
30-Jul-18 11:48 33.733230 -118.646199 190 15002ft 292kts
30-Jul-18 11:49 33.658093 -118.632943 132 15044ft 291kts
30-Jul-18 11:50 33.653478 -118.541932 54 15324ft 297kts
30-Jul-18 11:51 33.733576 -118.498490 15 17366ft 348kts
30-Jul-18 11:52 33.826881 -118.470055 15 20409ft 353kts
30-Jul-18 11:53 33.902205 -118.446133 23 22319ft 364kts
30-Jul-18 11:54 33.953966 -118.392103 56 23045ft 361kts
30-Jul-18 11:55 34.008978 -118.296701 58 23038ft 363kts
30-Jul-18 11:56 34.066185 -118.196140 58 24030ft 369kts
30-Jul-18 11:57 34.123242 -118.095454 58 24022ft 369kts
30-Jul-18 11:58 34.180949 -117.993221 58 24040ft 370kts
30-Jul-18 11:59 34.239051 -117.889915 58 24701ft 378kts
30-Jul-18 12:00 34.298521 -117.783845 58 26815ft 388kts
30-Jul-18 12:01 34.360014 -117.674381 56 28662ft 400kts
30-Jul-18 12:02 34.425443 -117.564925 56 29126ft 401kts
30-Jul-18 12:03 34.490825 -117.455331 56 29128ft 402kts
30-Jul-18 12:04 34.555740 -117.346123 56 29128ft 402kts
30-Jul-18 12:05 34.620910 -117.236171 56 29128ft 402kts
30-Jul-18 12:06 34.686233 -117.125580 56 29128ft 402kts
30-Jul-18 12:07 34.751165 -117.015231 56 29100ft 404kts
30-Jul-18 12:08 34.816009 -116.904670 55 29070ft 405kts
30-Jul-18 12:09 34.881085 -116.793385 55 29065ft 404kts
30-Jul-18 12:10 34.946081 -116.680859 56 29052ft 409kts
30-Jul-18 12:11 35.010456 -116.566849 56 27998ft 403kts
30-Jul-18 12:12 35.073468 -116.454895 56 26046ft 396kts
30-Jul-18 12:13 35.143428 -116.349705 46 25005ft 419kts
30-Jul-18 12:14 35.224504 -116.248941 46 24832ft 417kts
30-Jul-18 12:15 35.305219 -116.147956 47 23672ft 419kts
30-Jul-18 12:16 35.383272 -116.049891 47 21846ft 391kts
30-Jul-18 12:17 35.457808 -115.955836 47 20050ft 381kts
30-Jul-18 12:18 35.530236 -115.864141 47 18244ft 368kts
30-Jul-18 12:19 35.600293 -115.775169 47 16442ft 357kts
30-Jul-18 12:20 35.668147 -115.688744 47 14641ft 347kts
30-Jul-18 12:21 35.733989 -115.604701 46 13071ft 331kts
30-Jul-18 12:22 35.821828 -115.572505 3 13072ft 344kts
30-Jul-18 12:23 35.917174 -115.566637 8 13049ft 343kts
30-Jul-18 12:24 35.987922 -115.496780 62 13025ft 337kts
30-Jul-18 12:25 36.024202 -115.390862 73 13029ft 335kts
30-Jul-18 12:26 36.027620 -115.353620 92 13055ft 332kts
30-Jul-18 12:27 36.018163 -115.208711 95 13057ft 326kts
30-Jul-18 12:28 36.011292 -115.106281 95 12448ft 287kts
30-Jul-18 12:29 36.005141 -115.006148 93 10232ft 309kts
30-Jul-18 12:30 35.999361 -114.908355 93 7472ft 271kts
30-Jul-18 12:31 35.993988 -114.819050 93 5002ft 249kts
30-Jul-18 12:32 35.988678 -114.737528 94 5008ft 233kts
30-Jul-18 12:33 35.983661 -114.661392 93 5009ft 219kts
30-Jul-18 12:34 36.015030 -114.611802 6 5768ft 197kts
30-Jul-18 12:35 36.078611 -114.628956 317 6267ft 278kts
30-Jul-18 12:36 36.089063 -114.719020 239 6417ft 288kts
30-Jul-18 12:37 36.073930 -114.813812 270 6408ft 287kts
30-Jul-18 12:38 36.073781 -114.912522 270 6139ft 291kts
30-Jul-18 12:39 36.074989 -115.001887 271 3217ft 226kts
30-Jul-18 12:40 36.075487 -115.059111 269 2496ft 159kts
30-Jul-18 12:41 36.074886 -115.107630 259 2541ft 184kts
30-Jul-18 12:42 36.073642 -115.154088 270 2136ft 79kts
30-Jul-18 12:43 36.074325 -115.161241 350 2163ft 2kts
30-Jul-18 12:44 36.074439 -115.161265 348 2163ft 0kts
30-Jul-18 12:45 36.074765 -115.161379 328 2163ft 0kts
30-Jul-18 12:46 36.075013 -115.163861 274 2168ft 5kts
30-Jul-18 12:47 36.075480 -115.164513 356 2169ft 8kts
30-Jul-18 12:48 36.077757 -115.163251 24 2161ft 9kts
30-Jul-18 12:49 36.080936 -115.161394 22 2145ft 12kts
30-Jul-18 12:50 36.084943 -115.159124 27 2129ft 15kts
30-Jul-18 12:51 36.087025 -115.158138 351 2122ft 15kts
30-Jul-18 12:52 36.088781 -115.161863 293 2129ft 12kts
30-Jul-18 12:53 36.089076 -115.165901 190 2141ft 0kts
30-Jul-18 12:54 36.089076 -115.165901 189 2141ft 0kts

Navigation Log

Ident Type
Flight plan parsing failed, navigation log unavailable